Time;durP1;ratioP1;P1;durP2;ratioP2;P2;SDS_P1;SDS_P2;PMS_P1;PMS_P2;Temp;Humidity;BMP_temperature;BMP_pressure;BME280_temperature;BME280_humidity;BME280_pressure;Samples;Min_cycle;Max_cycle;Signal;HPM_P1;HPM_P2
2022/09/15 00:00:57;;;;;;;;;;;16.00;90.60;;;;;;5083882;28;20280;-67
2022/09/15 00:03:23;;;;;;;;;;;16.10;90.60;;;;;;5085998;28;19915;-67
2022/09/15 00:05:49;;;;;;;;;;;16.00;90.60;;;;;;5084023;28;19943;-67
2022/09/15 00:08:15;;;;;;;;;;;16.00;90.60;;;;;;5086007;28;19912;-67
2022/09/15 00:10:51;;;;;;;;;;;16.00;90.70;;;;;;5087602;28;20519;-66
2022/09/15 00:13:17;;;;;;;;;;;16.00;90.60;;;;;;5084487;28;20494;-67
2022/09/15 00:15:43;;;;;;;;;;;16.00;90.70;;;;;;5085926;28;19915;-66
2022/09/15 00:18:08;;;;;;;;;;;16.00;90.70;;;;;;5081172;28;19920;-67
2022/09/15 00:20:38;;;;;;;;;;;16.00;90.70;;;;;;5086115;28;20662;-66
2022/09/15 00:23:03;;;;;;;;;;;16.00;90.60;;;;;;5083393;28;19916;-67
2022/09/15 00:25:29;;;;;;;;;;;16.00;90.70;;;;;;5086567;28;19923;-66
2022/09/15 00:27:54;;;;;;;;;;;16.00;90.70;;;;;;5083032;28;19916;-67
2022/09/15 00:30:20;;;;;;;;;;;15.90;90.70;;;;;;5085935;28;19923;-66
2022/09/15 00:32:45;;;;;;;;;;;15.90;90.70;;;;;;5083236;28;19916;-67
2022/09/15 00:35:11;;;;;;;;;;;15.90;90.60;;;;;;5085773;28;19919;-67
2022/09/15 00:37:36;;;;;;;;;;;15.90;90.80;;;;;;5082549;28;20499;-67
2022/09/15 00:40:02;;;;;;;;;;;15.90;90.80;;;;;;5086031;28;19916;-67
2022/09/15 00:42:28;;;;;;;;;;;15.90;90.80;;;;;;5081072;28;20770;-67
2022/09/15 00:44:58;;;;;;;;;;;15.90;90.70;;;;;;5083685;28;20011;-67
2022/09/15 00:47:26;;;;;;;;;;;15.80;90.70;;;;;;5079349;28;19912;-66
2022/09/15 00:49:53;;;;;;;;;;;15.80;90.70;;;;;;5085423;28;19969;-67
2022/09/15 00:52:27;;;;;;;;;;;15.80;90.70;;;;;;5085130;28;19973;-67
2022/09/15 00:54:56;;;;;;;;;;;15.80;90.70;;;;;;5085132;28;19942;-67
2022/09/15 00:57:27;;;;;;;;;;;15.80;90.80;;;;;;5084863;28;20002;-67
2022/09/15 00:59:54;;;;;;;;;;;15.80;90.70;;;;;;5082771;28;20011;-67
2022/09/15 01:02:24;;;;;;;;;;;15.80;90.70;;;;;;5085420;28;19912;-67
2022/09/15 01:04:50;;;;;;;;;;;15.80;90.80;;;;;;5082635;28;20018;-67
2022/09/15 01:07:18;;;;;;;;;;;15.80;90.70;;;;;;5084921;28;19919;-67
2022/09/15 01:09:55;;;;;;;;;;;15.80;90.70;;;;;;5081613;28;20003;-67
2022/09/15 01:12:21;;;;;;;;;;;15.70;90.70;;;;;;5083618;28;19916;-67
2022/09/15 01:14:46;;;;;;;;;;;15.70;90.70;;;;;;5082728;28;19923;-67
2022/09/15 01:17:19;;;;;;;;;;;15.70;90.70;;;;;;5083416;28;19998;-67
2022/09/15 01:19:58;;;;;;;;;;;15.70;90.80;;;;;;5082598;28;20034;-67
2022/09/15 01:22:23;;;;;;;;;;;15.80;90.80;;;;;;5087962;28;20680;-67
2022/09/15 01:24:52;;;;;;;;;;;15.80;90.70;;;;;;5082222;28;19916;-67
2022/09/15 01:27:17;;;;;;;;;;;15.80;90.70;;;;;;5085186;28;19919;-67
2022/09/15 01:29:51;;;;;;;;;;;15.80;90.70;;;;;;5078955;28;19916;-67
2022/09/15 01:35:09;;;;;;;;;;;15.80;90.60;;;;;;5081628;28;19926;-67
2022/09/15 01:37:37;;;;;;;;;;;15.80;90.60;;;;;;5087242;28;19916;-67
2022/09/15 01:40:04;;;;;;;;;;;15.80;90.60;;;;;;5082387;28;20357;-67
2022/09/15 01:42:30;;;;;;;;;;;15.80;90.60;;;;;;5082688;28;19916;-67
2022/09/15 01:45:15;;;;;;;;;;;15.70;90.60;;;;;;5082757;28;19956;-67
2022/09/15 01:47:40;;;;;;;;;;;15.80;90.60;;;;;;5084819;28;19960;-67
2022/09/15 01:50:09;;;;;;;;;;;15.80;90.60;;;;;;5079894;28;19916;-67
2022/09/15 01:52:35;;;;;;;;;;;15.80;90.60;;;;;;5084749;28;20506;-67
2022/09/15 01:55:06;;;;;;;;;;;15.70;90.60;;;;;;5083232;28;20023;-67
2022/09/15 01:57:32;;;;;;;;;;;15.70;90.60;;;;;;5084657;28;19916;-67
2022/09/15 01:59:58;;;;;;;;;;;15.70;90.60;;;;;;5083451;28;19912;-67
2022/09/15 02:02:32;;;;;;;;;;;15.70;90.60;;;;;;5083140;28;19923;-66
2022/09/15 02:04:58;;;;;;;;;;;15.70;90.60;;;;;;5083305;28;20045;-67
2022/09/15 02:07:48;;;;;;;;;;;15.70;90.60;;;;;;5081921;28;19920;-66
2022/09/15 02:10:23;;;;;;;;;;;15.70;90.60;;;;;;5087506;28;19919;-67
2022/09/15 02:12:54;;;;;;;;;;;15.70;90.60;;;;;;5082489;28;19982;-66
2022/09/15 02:15:27;;;;;;;;;;;15.70;90.60;;;;;;5084757;28;19912;-67
2022/09/15 02:17:54;;;;;;;;;;;15.60;90.60;;;;;;5077748;28;19920;-67
2022/09/15 02:20:25;;;;;;;;;;;15.60;90.60;;;;;;5088490;28;19912;-66
2022/09/15 02:22:53;;;;;;;;;;;15.60;90.60;;;;;;5085407;28;19981;-66
2022/09/15 02:25:23;;;;;;;;;;;15.60;90.60;;;;;;5086951;28;19912;-66
2022/09/15 02:27:50;;;;;;;;;;;15.60;90.60;;;;;;5083844;28;19917;-67
2022/09/15 02:30:16;;;;;;;;;;;15.60;90.60;;;;;;5087633;28;20593;-66
2022/09/15 02:33:03;;;;;;;;;;;15.60;90.50;;;;;;5085465;28;19916;-67
2022/09/15 02:35:31;;;;;;;;;;;15.60;90.50;;;;;;5085644;28;20415;-66
2022/09/15 02:37:57;;;;;;;;;;;15.60;90.50;;;;;;5084509;28;20608;-66
2022/09/15 02:40:22;;;;;;;;;;;15.60;90.90;;;;;;5087812;28;20010;-66
2022/09/15 02:42:52;;;;;;;;;;;15.60;90.50;;;;;;5085803;28;19972;-66
2022/09/15 02:45:19;;;;;;;;;;;15.60;90.90;;;;;;5088396;28;20261;-66
2022/09/15 02:47:44;;;;;;;;;;;15.60;90.60;;;;;;5085195;28;19924;-66
2022/09/15 02:50:10;;;;;;;;;;;15.60;90.50;;;;;;5087534;28;19912;-66
2022/09/15 02:52:36;;;;;;;;;;;15.60;90.50;;;;;;5084879;28;20006;-66
2022/09/15 02:55:01;;;;;;;;;;;15.60;90.60;;;;;;5087604;28;19962;-66
2022/09/15 02:57:27;;;;;;;;;;;15.60;90.60;;;;;;5085271;28;19912;-66
2022/09/15 03:02:37;;;;;;;;;;;15.60;90.60;;;;;;5083254;28;20011;-66
2022/09/15 03:05:03;;;;;;;;;;;15.60;90.60;;;;;;5087193;28;20507;-66
2022/09/15 03:07:29;;;;;;;;;;;15.60;90.60;;;;;;5087006;28;19922;-66
2022/09/15 03:09:54;;;;;;;;;;;15.60;90.60;;;;;;5084583;28;19920;-66
2022/09/15 03:12:20;;;;;;;;;;;15.60;90.60;;;;;;5087160;28;19962;-66
2022/09/15 03:14:46;;;;;;;;;;;15.60;90.50;;;;;;5084497;28;20033;-66
2022/09/15 03:17:11;;;;;;;;;;;15.60;90.50;;;;;;5086727;28;19917;-67
2022/09/15 03:19:37;;;;;;;;;;;15.60;90.60;;;;;;5082466;28;20458;-66
2022/09/15 03:22:02;;;;;;;;;;;15.60;90.50;;;;;;5086992;28;20364;-66
2022/09/15 03:24:28;;;;;;;;;;;15.60;90.50;;;;;;5084848;28;20340;-66
2022/09/15 03:26:53;;;;;;;;;;;15.60;90.50;;;;;;5086064;28;19923;-66
2022/09/15 03:29:19;;;;;;;;;;;15.60;90.50;;;;;;5084422;28;19916;-66
2022/09/15 03:31:44;;;;;;;;;;;15.60;90.50;;;;;;5119361;27;19916;-66
2022/09/15 03:34:10;;;;;;;;;;;15.60;90.50;;;;;;5085909;28;19923;-66
2022/09/15 03:36:35;;;;;;;;;;;15.60;90.60;;;;;;5089284;28;19923;-66
2022/09/15 03:39:01;;;;;;;;;;;15.60;90.50;;;;;;5083466;28;19953;-67
2022/09/15 03:41:26;;;;;;;;;;;15.60;90.50;;;;;;5085622;28;19916;-66
2022/09/15 03:43:52;;;;;;;;;;;15.50;90.40;;;;;;5086635;28;19911;-66
2022/09/15 03:46:18;;;;;;;;;;;15.50;90.50;;;;;;5084580;28;19923;-66
2022/09/15 03:48:44;;;;;;;;;;;15.50;90.50;;;;;;5086254;28;20028;-66
2022/09/15 03:51:09;;;;;;;;;;;15.50;90.50;;;;;;5084373;28;19920;-66
2022/09/15 03:53:36;;;;;;;;;;;15.50;90.50;;;;;;5086563;28;19916;-66
2022/09/15 03:56:25;;;;;;;;;;;15.50;90.60;;;;;;5084334;28;19998;-66
2022/09/15 03:58:51;;;;;;;;;;;15.50;90.60;;;;;;5075211;28;19917;-66
2022/09/15 04:01:19;;;;;;;;;;;15.50;90.60;;;;;;5084010;28;19912;-66
2022/09/15 04:03:45;;;;;;;;;;;15.50;90.60;;;;;;5085216;28;20390;-66
2022/09/15 04:06:11;;;;;;;;;;;15.50;90.60;;;;;;5084090;28;19912;-66
2022/09/15 04:08:36;;;;;;;;;;;15.50;90.60;;;;;;5085712;28;19923;-66
2022/09/15 04:11:06;;;;;;;;;;;15.50;90.50;;;;;;5083451;28;20380;-66
2022/09/15 04:13:32;;;;;;;;;;;15.50;90.50;;;;;;5085864;28;20354;-66
2022/09/15 04:16:02;;;;;;;;;;;15.50;90.50;;;;;;5083539;28;19915;-66
2022/09/15 04:18:29;;;;;;;;;;;15.50;90.60;;;;;;5083205;28;19966;-66
2022/09/15 04:21:23;;;;;;;;;;;15.50;90.50;;;;;;5083398;28;19969;-66
2022/09/15 04:23:49;;;;;;;;;;;15.50;90.60;;;;;;5074772;28;20407;-66
2022/09/15 04:26:23;;;;;;;;;;;15.60;90.50;;;;;;5083632;28;19916;-66
2022/09/15 04:28:48;;;;;;;;;;;15.60;90.60;;;;;;5085966;28;20693;-66
2022/09/15 04:31:14;;;;;;;;;;;15.60;90.50;;;;;;5082517;28;19924;-66
2022/09/15 04:33:41;;;;;;;;;;;15.60;90.60;;;;;;5085181;28;19920;-66
2022/09/15 04:36:08;;;;;;;;;;;15.60;90.60;;;;;;5083780;28;19912;-66
2022/09/15 04:38:34;;;;;;;;;;;15.60;90.50;;;;;;5084846;28;19923;-66
2022/09/15 04:41:00;;;;;;;;;;;15.60;90.60;;;;;;5085155;28;19912;-66
2022/09/15 04:43:26;;;;;;;;;;;15.60;90.60;;;;;;5082825;28;20273;-66
2022/09/15 04:45:52;;;;;;;;;;;15.60;90.60;;;;;;5086609;28;19923;-66
2022/09/15 04:48:17;;;;;;;;;;;15.60;90.60;;;;;;5081836;28;19919;-66
2022/09/15 04:50:43;;;;;;;;;;;15.60;90.60;;;;;;5084511;28;19923;-66
2022/09/15 04:53:09;;;;;;;;;;;15.60;90.60;;;;;;5083192;28;19916;-66
2022/09/15 04:55:34;;;;;;;;;;;15.60;90.60;;;;;;5085471;28;19945;-66
2022/09/15 04:58:01;;;;;;;;;;;15.60;90.60;;;;;;5083112;28;20314;-66
2022/09/15 05:00:27;;;;;;;;;;;15.60;90.60;;;;;;5084612;28;20315;-66
2022/09/15 05:02:53;;;;;;;;;;;15.60;90.60;;;;;;5082694;28;19927;-66
2022/09/15 05:05:18;;;;;;;;;;;15.60;90.60;;;;;;5084370;28;20569;-66
2022/09/15 05:07:45;;;;;;;;;;;15.60;90.60;;;;;;5082785;28;20030;-66
2022/09/15 05:10:11;;;;;;;;;;;15.60;90.60;;;;;;5085019;28;20391;-66
2022/09/15 05:12:37;;;;;;;;;;;15.60;90.60;;;;;;5083001;28;19920;-66
2022/09/15 05:15:03;;;;;;;;;;;15.60;90.60;;;;;;5085162;28;19916;-66
2022/09/15 05:17:29;;;;;;;;;;;15.60;90.60;;;;;;5084725;28;19953;-66
2022/09/15 05:19:55;;;;;;;;;;;15.60;90.60;;;;;;5080850;28;20510;-68
2022/09/15 05:22:20;;;;;;;;;;;15.60;90.60;;;;;;5083524;28;19966;-67
2022/09/15 05:24:46;;;;;;;;;;;15.60;90.60;;;;;;5084741;28;20027;-66
2022/09/15 05:27:11;;;;;;;;;;;15.60;90.60;;;;;;5085016;28;19920;-66
2022/09/15 05:29:37;;;;;;;;;;;15.60;90.60;;;;;;5082265;28;20531;-66
2022/09/15 05:32:02;;;;;;;;;;;15.60;90.60;;;;;;5084846;28;19966;-66
2022/09/15 05:34:28;;;;;;;;;;;15.60;90.60;;;;;;5084464;28;19920;-66
2022/09/15 05:36:53;;;;;;;;;;;15.60;90.60;;;;;;5084732;28;20297;-66
2022/09/15 05:39:19;;;;;;;;;;;15.70;90.60;;;;;;5081586;28;19912;-66
2022/09/15 05:41:44;;;;;;;;;;;15.60;90.50;;;;;;5084411;28;19912;-66
2022/09/15 05:44:10;;;;;;;;;;;15.60;90.50;;;;;;5084103;28;20014;-67
2022/09/15 05:46:35;;;;;;;;;;;15.60;90.50;;;;;;5089125;28;19930;-67
2022/09/15 05:49:01;;;;;;;;;;;15.60;90.50;;;;;;5086041;28;19912;-67
2022/09/15 05:51:26;;;;;;;;;;;15.60;90.50;;;;;;5088523;28;19923;-68
2022/09/15 05:53:52;;;;;;;;;;;15.60;90.50;;;;;;5087856;28;20136;-67
2022/09/15 05:56:17;;;;;;;;;;;15.60;90.50;;;;;;5086067;28;19924;-66
2022/09/15 05:58:45;;;;;;;;;;;15.70;90.50;;;;;;5088114;28;19912;-69
2022/09/15 06:01:12;;;;;;;;;;;15.70;90.50;;;;;;5086045;28;20669;-67
2022/09/15 06:03:38;;;;;;;;;;;15.70;90.50;;;;;;5088622;28;19916;-67
2022/09/15 06:06:05;;;;;;;;;;;15.70;90.50;;;;;;5085704;28;19916;-66
2022/09/15 06:08:35;;;;;;;;;;;15.70;90.50;;;;;;5088548;28;19976;-66
2022/09/15 06:11:02;;;;;;;;;;;15.70;90.50;;;;;;5081767;28;19920;-66
2022/09/15 06:13:27;;;;;;;;;;;15.70;90.50;;;;;;5088889;28;20683;-67
2022/09/15 06:15:53;;;;;;;;;;;15.70;90.40;;;;;;5085582;28;19920;-66
2022/09/15 06:18:18;;;;;;;;;;;15.80;90.40;;;;;;5088448;28;19923;-66
2022/09/15 06:20:44;;;;;;;;;;;15.80;90.40;;;;;;5085415;28;20428;-66
2022/09/15 06:23:09;;;;;;;;;;;15.80;90.40;;;;;;5088555;28;19954;-66
2022/09/15 06:25:35;;;;;;;;;;;15.80;90.40;;;;;;5085243;28;19916;-67
2022/09/15 06:28:00;;;;;;;;;;;15.80;90.40;;;;;;5088033;28;19927;-66
2022/09/15 06:30:26;;;;;;;;;;;15.80;90.40;;;;;;5085812;28;19951;-67
2022/09/15 06:32:51;;;;;;;;;;;15.80;90.40;;;;;;5087387;28;19912;-67
2022/09/15 06:35:17;;;;;;;;;;;15.80;90.40;;;;;;5087770;28;19912;-67
2022/09/15 06:37:42;;;;;;;;;;;15.80;90.40;;;;;;5083430;28;19927;-66
2022/09/15 06:40:08;;;;;;;;;;;15.90;90.40;;;;;;5077654;28;19926;-66
2022/09/15 06:42:34;;;;;;;;;;;15.90;90.40;;;;;;5085608;28;19934;-66
2022/09/15 06:45:00;;;;;;;;;;;15.90;90.40;;;;;;5087575;28;20287;-66
2022/09/15 06:47:25;;;;;;;;;;;15.90;90.40;;;;;;5085393;28;20266;-67
2022/09/15 06:49:52;;;;;;;;;;;15.90;90.40;;;;;;5087824;28;20648;-66
2022/09/15 06:52:17;;;;;;;;;;;15.90;90.30;;;;;;5085374;28;19927;-66
2022/09/15 06:54:43;;;;;;;;;;;15.90;90.60;;;;;;5085995;28;19908;-67
2022/09/15 06:57:08;;;;;;;;;;;16.00;90.30;;;;;;5086078;28;19912;-67
2022/09/15 06:59:34;;;;;;;;;;;16.00;90.30;;;;;;5087205;28;19918;-66
2022/09/15 07:01:59;;;;;;;;;;;16.00;90.30;;;;;;5084979;28;20395;-66
2022/09/15 07:04:25;;;;;;;;;;;16.00;90.30;;;;;;5084192;28;19919;-67
2022/09/15 07:06:50;;;;;;;;;;;16.00;90.30;;;;;;5085395;28;19918;-67
2022/09/15 07:09:16;;;;;;;;;;;16.00;90.30;;;;;;5086306;28;19912;-66
2022/09/15 07:11:41;;;;;;;;;;;16.00;90.20;;;;;;5086777;28;19916;-67
2022/09/15 07:14:07;;;;;;;;;;;16.00;90.20;;;;;;5084743;28;19922;-66
2022/09/15 07:16:32;;;;;;;;;;;16.10;90.20;;;;;;5087074;28;20443;-66
2022/09/15 07:19:00;;;;;;;;;;;16.10;90.20;;;;;;5084617;28;19920;-66
2022/09/15 07:21:26;;;;;;;;;;;16.10;90.20;;;;;;5086897;28;20447;-67
2022/09/15 07:23:51;;;;;;;;;;;16.10;90.20;;;;;;5084824;28;19916;-67
2022/09/15 07:26:18;;;;;;;;;;;16.10;90.20;;;;;;5086216;28;20600;-67
2022/09/15 07:28:45;;;;;;;;;;;16.10;90.20;;;;;;5084650;28;19916;-66
2022/09/15 07:31:12;;;;;;;;;;;16.20;90.20;;;;;;5086070;28;20412;-67
2022/09/15 07:33:38;;;;;;;;;;;16.10;90.10;;;;;;5082920;28;20013;-67
2022/09/15 07:36:05;;;;;;;;;;;16.20;90.20;;;;;;5086600;28;20027;-66
2022/09/15 07:38:31;;;;;;;;;;;16.20;90.20;;;;;;5083583;28;19916;-66
2022/09/15 07:41:06;;;;;;;;;;;16.20;90.20;;;;;;5083578;28;20108;-67
2022/09/15 07:43:32;;;;;;;;;;;16.20;90.20;;;;;;5084490;28;19955;-67
2022/09/15 07:45:58;;;;;;;;;;;16.20;90.20;;;;;;5086736;28;19970;-66
2022/09/15 07:48:24;;;;;;;;;;;16.30;90.20;;;;;;5085368;28;20398;-66
2022/09/15 07:50:49;;;;;;;;;;;16.30;90.20;;;;;;5084943;28;19916;-67
2022/09/15 07:53:15;;;;;;;;;;;16.40;90.20;;;;;;5086922;28;19916;-67
2022/09/15 07:55:40;;;;;;;;;;;16.40;90.10;;;;;;5083876;28;19955;-66
2022/09/15 07:58:06;;;;;;;;;;;16.40;90.00;;;;;;5086455;28;19912;-66
2022/09/15 08:00:31;;;;;;;;;;;16.50;90.00;;;;;;5083828;28;19916;-67
2022/09/15 08:02:57;;;;;;;;;;;16.50;89.90;;;;;;5085180;28;19955;-66
2022/09/15 08:05:26;;;;;;;;;;;16.60;89.90;;;;;;5083625;28;19985;-66
2022/09/15 08:07:55;;;;;;;;;;;16.60;89.80;;;;;;5085807;28;19934;-67
2022/09/15 08:10:24;;;;;;;;;;;16.60;89.90;;;;;;5083420;28;19927;-66
2022/09/15 08:12:51;;;;;;;;;;;16.70;90.10;;;;;;5085210;28;19922;-66
2022/09/15 08:15:17;;;;;;;;;;;16.70;89.60;;;;;;5085454;28;19943;-66
2022/09/15 08:17:42;;;;;;;;;;;16.70;89.60;;;;;;5085673;28;20649;-67
2022/09/15 08:20:08;;;;;;;;;;;16.80;89.40;;;;;;5081572;28;19946;-66
2022/09/15 08:22:34;;;;;;;;;;;16.80;89.30;;;;;;5085842;28;19911;-66
2022/09/15 08:24:59;;;;;;;;;;;16.90;89.30;;;;;;5083488;28;20660;-66
2022/09/15 08:27:25;;;;;;;;;;;16.90;89.10;;;;;;5082300;28;20481;-66
2022/09/15 08:29:50;;;;;;;;;;;16.90;89.10;;;;;;5085127;28;19991;-66
2022/09/15 08:32:16;;;;;;;;;;;17.00;89.00;;;;;;5081952;28;19920;-66
2022/09/15 08:34:41;;;;;;;;;;;17.00;89.00;;;;;;5084880;28;19923;-66
2022/09/15 08:37:07;;;;;;;;;;;17.00;88.90;;;;;;5083031;28;19977;-67
2022/09/15 08:39:33;;;;;;;;;;;17.00;89.20;;;;;;5083437;28;20524;-66
2022/09/15 08:41:59;;;;;;;;;;;17.10;89.00;;;;;;5080242;28;19927;-66
2022/09/15 08:44:34;;;;;;;;;;;17.10;88.80;;;;;;5085534;28;19951;-67
2022/09/15 08:47:12;;;;;;;;;;;17.20;88.70;;;;;;5080944;28;20003;-67
2022/09/15 08:49:43;;;;;;;;;;;17.20;88.70;;;;;;5106394;27;19912;-66
2022/09/15 08:52:14;;;;;;;;;;;17.20;88.80;;;;;;5082895;28;19924;-67
2022/09/15 08:54:40;;;;;;;;;;;17.30;88.80;;;;;;5085093;28;19912;-67
2022/09/15 08:57:09;;;;;;;;;;;17.30;88.50;;;;;;5083986;28;19922;-67
2022/09/15 08:59:36;;;;;;;;;;;17.30;88.40;;;;;;5083067;28;20403;-67
2022/09/15 09:02:10;;;;;;;;;;;17.40;88.50;;;;;;5082455;28;19916;-67
2022/09/15 09:04:36;;;;;;;;;;;17.40;88.40;;;;;;5083661;28;19969;-67
2022/09/15 09:07:04;;;;;;;;;;;17.50;88.40;;;;;;5083606;28;19924;-67
2022/09/15 09:09:43;;;;;;;;;;;17.50;88.20;;;;;;5084944;28;20010;-67
2022/09/15 09:12:15;;;;;;;;;;;17.60;88.30;;;;;;5076457;28;19969;-66
2022/09/15 09:14:46;;;;;;;;;;;17.60;88.10;;;;;;5111713;27;20018;-67
2022/09/15 09:17:23;;;;;;;;;;;17.60;88.00;;;;;;5082193;28;19913;-67
2022/09/15 09:20:01;;;;;;;;;;;17.60;87.80;;;;;;5084696;28;19924;-67
2022/09/15 09:22:30;;;;;;;;;;;17.60;87.80;;;;;;5081696;28;19965;-67
2022/09/15 09:24:57;;;;;;;;;;;17.60;87.90;;;;;;5082732;28;20268;-67
2022/09/15 09:27:28;;;;;;;;;;;17.60;87.80;;;;;;5082770;28;19959;-67
2022/09/15 09:30:00;;;;;;;;;;;17.70;87.70;;;;;;5083208;28;19961;-68
2022/09/15 09:32:31;;;;;;;;;;;17.70;87.60;;;;;;5082354;28;19916;-67
2022/09/15 09:35:00;;;;;;;;;;;17.70;87.40;;;;;;5084104;28;19923;-68
2022/09/15 09:37:25;;;;;;;;;;;17.80;87.30;;;;;;5083565;28;19912;-67
2022/09/15 09:39:51;;;;;;;;;;;17.90;87.00;;;;;;5082318;28;19923;-67
2022/09/15 09:42:17;;;;;;;;;;;18.00;87.00;;;;;;5084032;28;20440;-67
2022/09/15 09:44:43;;;;;;;;;;;18.00;86.70;;;;;;5082021;28;19916;-67
2022/09/15 09:47:09;;;;;;;;;;;18.00;86.70;;;;;;5084678;28;20616;-67
2022/09/15 09:49:37;;;;;;;;;;;18.00;86.60;;;;;;5082633;28;20057;-67
2022/09/15 09:52:03;;;;;;;;;;;18.00;86.60;;;;;;5108504;28;19924;-67
2022/09/15 09:54:32;;;;;;;;;;;18.00;86.60;;;;;;5082387;28;19924;-67
2022/09/15 09:57:13;;;;;;;;;;;18.10;86.60;;;;;;5084166;28;20002;-67
2022/09/15 09:59:40;;;;;;;;;;;18.10;86.40;;;;;;5082286;28;19965;-67
2022/09/15 10:02:12;;;;;;;;;;;18.10;86.40;;;;;;5084533;28;20365;-67
2022/09/15 10:04:38;;;;;;;;;;;18.10;86.20;;;;;;5080080;28;19924;-66
2022/09/15 10:07:04;;;;;;;;;;;18.20;86.30;;;;;;5083860;28;19944;-67
2022/09/15 10:09:29;;;;;;;;;;;18.10;86.10;;;;;;5081802;28;20355;-67
2022/09/15 10:11:57;;;;;;;;;;;18.10;86.40;;;;;;5083384;28;19995;-66
2022/09/15 10:14:30;;;;;;;;;;;18.10;86.30;;;;;;5082246;28;20768;-67
2022/09/15 10:16:59;;;;;;;;;;;18.20;86.30;;;;;;5083137;28;20052;-67
2022/09/15 10:19:25;;;;;;;;;;;18.20;86.00;;;;;;5081065;28;20344;-67
2022/09/15 10:21:51;;;;;;;;;;;18.20;86.00;;;;;;5087413;28;19916;-67
2022/09/15 10:24:25;;;;;;;;;;;18.20;85.70;;;;;;5084624;28;19919;-67
2022/09/15 10:26:51;;;;;;;;;;;18.30;85.40;;;;;;5083642;28;20654;-66
2022/09/15 10:29:17;;;;;;;;;;;18.30;85.80;;;;;;5084444;28;19989;-67
2022/09/15 10:31:43;;;;;;;;;;;18.30;85.50;;;;;;5084637;28;20011;-67
2022/09/15 10:34:22;;;;;;;;;;;18.30;85.30;;;;;;5088339;28;19959;-67
2022/09/15 10:36:48;;;;;;;;;;;18.20;85.50;;;;;;5085575;28;19973;-66
2022/09/15 10:39:22;;;;;;;;;;;18.30;85.60;;;;;;5086894;28;19916;-67
2022/09/15 10:42:10;;;;;;;;;;;18.30;85.60;;;;;;5078333;28;19916;-67
2022/09/15 10:44:46;;;;;;;;;;;18.20;85.60;;;;;;5084318;28;19912;-67
2022/09/15 10:47:30;;;;;;;;;;;18.20;85.70;;;;;;5082559;28;19938;-67
2022/09/15 10:50:07;;;;;;;;;;;18.20;85.80;;;;;;5087302;28;20448;-66
2022/09/15 10:52:32;;;;;;;;;;;18.20;85.70;;;;;;5085066;28;19920;-67
2022/09/15 10:55:10;;;;;;;;;;;18.10;86.10;;;;;;5088161;28;19961;-67
2022/09/15 10:57:46;;;;;;;;;;;18.10;86.20;;;;;;5085103;28;19916;-67
2022/09/15 11:00:17;;;;;;;;;;;18.00;86.30;;;;;;5086980;28;19923;-67
2022/09/15 11:03:07;;;;;;;;;;;18.00;86.40;;;;;;5084134;28;20011;-67
2022/09/15 11:05:40;;;;;;;;;;;18.00;86.60;;;;;;5087455;28;20392;-67
2022/09/15 11:08:24;;;;;;;;;;;17.90;86.70;;;;;;5083562;28;20447;-67
2022/09/15 11:11:12;;;;;;;;;;;17.90;86.90;;;;;;5085014;28;20700;-67
2022/09/15 11:13:55;;;;;;;;;;;17.90;87.00;;;;;;5083995;28;19916;-67
2022/09/15 11:16:24;;;;;;;;;;;17.80;87.10;;;;;;5086116;28;19913;-67
2022/09/15 11:19:02;;;;;;;;;;;17.80;87.10;;;;;;5084582;28;19923;-67
2022/09/15 11:21:27;;;;;;;;;;;17.80;87.20;;;;;;5115932;27;19962;-66
2022/09/15 11:24:11;;;;;;;;;;;17.80;87.40;;;;;;5069673;28;20350;-67
2022/09/15 11:26:37;;;;;;;;;;;17.70;87.30;;;;;;5075653;28;19912;-67
2022/09/15 11:29:10;;;;;;;;;;;17.70;87.40;;;;;;5085912;28;19916;-67
2022/09/15 11:31:38;;;;;;;;;;;17.70;87.40;;;;;;5081219;28;19943;-67
2022/09/15 11:34:08;;;;;;;;;;;17.70;87.30;;;;;;5084651;28;19927;-67
2022/09/15 11:36:39;;;;;;;;;;;17.70;87.40;;;;;;5085303;28;19947;-67
2022/09/15 11:39:04;;;;;;;;;;;17.70;87.30;;;;;;5083869;28;19916;-67
2022/09/15 11:41:35;;;;;;;;;;;17.70;87.30;;;;;;5082080;28;19918;-67
2022/09/15 11:44:13;;;;;;;;;;;17.70;87.30;;;;;;5084327;28;19916;-67
2022/09/15 11:46:57;;;;;;;;;;;17.70;87.20;;;;;;5085260;28;20429;-66
2022/09/15 11:49:25;;;;;;;;;;;17.70;87.20;;;;;;5083910;28;19920;-67
2022/09/15 11:51:53;;;;;;;;;;;17.70;87.20;;;;;;5084076;28;19955;-67
2022/09/15 11:54:36;;;;;;;;;;;17.80;87.10;;;;;;5083031;28;19923;-67
2022/09/15 11:57:01;;;;;;;;;;;17.80;87.60;;;;;;5083468;28;19916;-67
2022/09/15 11:59:45;;;;;;;;;;;17.80;86.80;;;;;;5084407;28;19920;-67
2022/09/15 12:02:33;;;;;;;;;;;17.90;86.70;;;;;;5085755;28;20025;-67
2022/09/15 12:05:17;;;;;;;;;;;18.00;86.40;;;;;;5083821;28;19926;-67
2022/09/15 12:07:52;;;;;;;;;;;18.00;86.20;;;;;;5079578;28;20634;-66
2022/09/15 12:10:19;;;;;;;;;;;18.10;86.00;;;;;;5083686;28;20112;-67
2022/09/15 12:12:45;;;;;;;;;;;18.20;85.70;;;;;;5085848;28;20450;-67
2022/09/15 12:15:15;;;;;;;;;;;18.20;85.40;;;;;;5083371;28;19923;-67
2022/09/15 12:17:46;;;;;;;;;;;18.40;85.30;;;;;;5080820;28;19926;-67
2022/09/15 12:20:16;;;;;;;;;;;18.40;85.10;;;;;;5082614;28;19952;-67
2022/09/15 12:22:45;;;;;;;;;;;18.50;85.00;;;;;;5085956;28;19945;-67
2022/09/15 12:25:15;;;;;;;;;;;18.60;84.90;;;;;;5082876;28;19920;-67
2022/09/15 12:27:40;;;;;;;;;;;18.60;84.50;;;;;;5084963;28;19916;-67
2022/09/15 12:30:26;;;;;;;;;;;18.60;84.40;;;;;;5083964;28;19916;-66
2022/09/15 12:32:55;;;;;;;;;;;18.70;84.40;;;;;;5084854;28;19920;-67
2022/09/15 12:35:23;;;;;;;;;;;18.70;84.40;;;;;;5081109;28;20679;-67
2022/09/15 12:37:56;;;;;;;;;;;18.70;84.40;;;;;;5085005;28;19923;-67
2022/09/15 12:40:40;;;;;;;;;;;18.70;84.40;;;;;;5082935;28;19962;-67
2022/09/15 12:43:09;;;;;;;;;;;18.70;84.20;;;;;;5084693;28;19918;-67
2022/09/15 12:45:35;;;;;;;;;;;18.70;84.30;;;;;;5083103;28;19963;-67
2022/09/15 12:48:03;;;;;;;;;;;18.70;84.50;;;;;;5085740;28;20348;-67
2022/09/15 12:50:36;;;;;;;;;;;18.70;84.50;;;;;;5082503;28;19927;-67
2022/09/15 12:53:11;;;;;;;;;;;18.70;84.60;;;;;;5084925;28;19923;-67
2022/09/15 12:55:46;;;;;;;;;;;18.70;84.50;;;;;;5082098;28;19927;-67
2022/09/15 12:58:17;;;;;;;;;;;18.70;84.70;;;;;;5085375;28;19912;-67
2022/09/15 13:00:43;;;;;;;;;;;18.70;84.80;;;;;;5083061;28;22731;-67
2022/09/15 13:03:24;;;;;;;;;;;18.70;84.80;;;;;;5085212;28;19920;-67
2022/09/15 13:05:50;;;;;;;;;;;18.80;84.70;;;;;;5082778;28;19912;-67
2022/09/15 13:08:28;;;;;;;;;;;18.80;84.50;;;;;;5085231;28;19969;-67
2022/09/15 13:11:05;;;;;;;;;;;18.80;84.50;;;;;;5081110;28;19967;-67
2022/09/15 13:13:50;;;;;;;;;;;18.90;84.40;;;;;;5085096;28;20003;-67
2022/09/15 13:16:20;;;;;;;;;;;18.90;84.30;;;;;;5082524;28;21122;-67
2022/09/15 13:18:46;;;;;;;;;;;18.90;84.70;;;;;;5084516;28;19916;-67
2022/09/15 13:21:14;;;;;;;;;;;19.10;83.90;;;;;;5083907;28;19912;-67
2022/09/15 13:23:41;;;;;;;;;;;19.20;83.80;;;;;;5084594;28;20016;-66
2022/09/15 13:26:11;;;;;;;;;;;19.20;83.60;;;;;;5084758;28;20448;-67
2022/09/15 13:28:36;;;;;;;;;;;19.20;83.30;;;;;;5082401;28;19939;-67
2022/09/15 13:31:05;;;;;;;;;;;19.30;83.20;;;;;;5087591;28;20502;-67
2022/09/15 13:33:30;;;;;;;;;;;19.30;82.90;;;;;;5082556;28;19916;-67
2022/09/15 13:36:00;;;;;;;;;;;19.40;82.60;;;;;;5084311;28;20269;-67
2022/09/15 13:38:34;;;;;;;;;;;19.40;82.70;;;;;;5081925;28;20295;-67
2022/09/15 13:41:12;;;;;;;;;;;19.40;82.80;;;;;;5081006;28;20265;-66
2022/09/15 13:43:41;;;;;;;;;;;19.40;83.00;;;;;;5083186;28;19947;-67
2022/09/15 13:46:39;;;;;;;;;;;19.40;82.90;;;;;;5083526;28;19915;-67
2022/09/15 13:49:19;;;;;;;;;;;19.30;83.00;;;;;;5039396;28;20439;-67
2022/09/15 13:51:50;;;;;;;;;;;19.40;82.80;;;;;;5083959;28;19916;-67
2022/09/15 13:54:17;;;;;;;;;;;19.40;83.10;;;;;;5082804;28;19912;-67
2022/09/15 13:56:44;;;;;;;;;;;19.40;82.80;;;;;;5084786;28;19943;-67
2022/09/15 13:59:14;;;;;;;;;;;19.30;82.90;;;;;;5083611;28;19916;-67
2022/09/15 14:01:41;;;;;;;;;;;19.30;83.10;;;;;;5082803;28;19916;-67
2022/09/15 14:04:12;;;;;;;;;;;19.30;83.20;;;;;;5081944;28;19916;-67
2022/09/15 14:06:39;;;;;;;;;;;19.30;83.10;;;;;;5089878;28;20314;-67
2022/09/15 14:09:11;;;;;;;;;;;19.30;83.20;;;;;;5085975;28;20032;-67
2022/09/15 14:11:37;;;;;;;;;;;19.30;82.80;;;;;;5087998;28;20273;-67
2022/09/15 14:14:07;;;;;;;;;;;19.30;83.10;;;;;;5086369;28;19919;-67
2022/09/15 14:16:34;;;;;;;;;;;19.30;83.20;;;;;;5088102;28;19923;-67
2022/09/15 14:19:00;;;;;;;;;;;19.30;82.80;;;;;;5086193;28;20296;-67
2022/09/15 14:21:27;;;;;;;;;;;19.20;83.20;;;;;;5090304;28;19912;-67
2022/09/15 14:23:54;;;;;;;;;;;19.20;83.20;;;;;;5087879;28;19912;-67
2022/09/15 14:26:24;;;;;;;;;;;19.20;83.20;;;;;;5088573;28;20050;-67
2022/09/15 14:28:52;;;;;;;;;;;19.30;83.20;;;;;;5087073;28;20059;-67
2022/09/15 14:31:26;;;;;;;;;;;19.20;83.00;;;;;;5089130;28;19919;-67